Time;durP1;ratioP1;P1;durP2;ratioP2;P2;SDS_P1;SDS_P2;PMS_P1;PMS_P2;Temp;Humidity;BMP_temperature;BMP_pressure;BME280_temperature;BME280_humidity;BME280_pressure;Samples;Min_cycle;Max_cycle;Signal;HPM_P1;HPM_P2
2022/05/12 00:00:48;;;;;;;8.58;5.87;;;;;;;20.31;48.55;99758.94;1767332;81;20998;-72
2022/05/12 00:03:16;;;;;;;10.72;6.60;;;;;;;20.33;48.47;99755.47;1767141;81;20918;-72
2022/05/12 00:05:42;;;;;;;11.48;6.10;;;;;;;20.34;48.40;99752.49;1767212;80;20986;-73
2022/05/12 00:08:08;;;;;;;10.58;6.60;;;;;;;20.37;48.33;99757.41;1766963;80;21006;-73
2022/05/12 00:10:34;;;;;;;6.15;4.87;;;;;;;20.41;48.23;99753.14;1761606;81;21014;-73
2022/05/12 00:13:00;;;;;;;4.90;4.40;;;;;;;20.47;48.16;99753.22;1766633;80;22023;-73
2022/05/12 00:15:28;;;;;;;9.73;5.15;;;;;;;20.50;48.02;99744.59;1767110;80;21078;-73
2022/05/12 00:17:54;;;;;;;6.78;5.08;;;;;;;20.54;47.94;99741.66;1730330;83;21046;-73
2022/05/12 00:20:21;;;;;;;10.85;4.87;;;;;;;20.53;47.83;99742.20;1730365;82;21031;-73
2022/05/12 00:22:48;;;;;;;7.08;4.92;;;;;;;20.53;47.77;99744.08;1730519;82;21034;-73
2022/05/12 00:25:19;;;;;;;9.93;5.53;;;;;;;20.53;47.72;99735.95;1730219;83;20982;-73
2022/05/12 00:27:45;;;;;;;7.05;5.20;;;;;;;20.50;47.68;99747.30;1731035;82;21519;-72
2022/05/12 00:30:11;;;;;;;5.40;4.75;;;;;;;20.52;47.63;99737.02;1730959;82;20981;-73
2022/05/12 00:32:40;;;;;;;6.83;4.90;;;;;;;20.54;47.59;99743.02;1731061;82;21645;-73
2022/05/12 00:35:07;;;;;;;8.55;5.20;;;;;;;20.54;47.56;99737.60;1730042;82;21685;-73
2022/05/12 00:37:33;;;;;;;6.78;4.65;;;;;;;20.54;47.50;99737.60;1729707;83;21042;-73
2022/05/12 00:39:59;;;;;;;6.10;4.50;;;;;;;20.56;47.46;99733.56;1730625;83;21186;-73
2022/05/12 00:42:25;;;;;;;10.85;5.10;;;;;;;20.53;47.42;99731.89;1730386;83;20895;-73
2022/05/12 00:44:51;;;;;;;6.85;4.80;;;;;;;20.52;47.42;99730.24;1730239;82;21495;-73
2022/05/12 00:47:17;;;;;;;5.45;4.95;;;;;;;20.51;47.39;99725.92;1730298;82;21062;-72
2022/05/12 00:49:43;;;;;;;5.35;4.70;;;;;;;20.48;47.41;99725.06;1730382;82;20999;-73
2022/05/12 00:52:18;;;;;;;8.05;4.75;;;;;;;20.50;47.39;99727.80;1730792;82;21228;-73
2022/05/12 00:54:59;;;;;;;8.68;5.20;;;;;;;20.49;47.38;99728.86;1731077;82;20991;-73
2022/05/12 00:57:29;;;;;;;9.73;5.17;;;;;;;20.48;47.38;99733.20;1729990;82;20986;-73
2022/05/12 00:59:55;;;;;;;6.03;4.60;;;;;;;20.48;47.36;99727.78;1730643;83;21487;-73
2022/05/12 01:02:21;;;;;;;5.53;4.65;;;;;;;20.49;47.35;99730.22;1730626;82;21051;-73
2022/05/12 01:04:48;;;;;;;7.10;4.67;;;;;;;20.51;47.31;99732.69;1730184;82;21122;-73
2022/05/12 01:07:15;;;;;;;6.87;4.72;;;;;;;20.51;47.31;99732.69;1730272;82;21026;-72
2022/05/12 01:09:40;;;;;;;5.28;4.72;;;;;;;20.58;47.28;99719.78;1730209;83;21014;-73
2022/05/12 01:12:08;;;;;;;8.28;5.15;;;;;;;20.62;47.21;99725.78;1729803;82;21539;-73
2022/05/12 01:14:34;;;;;;;12.10;4.95;;;;;;;20.66;47.17;99728.27;1730185;82;21030;-73
2022/05/12 01:17:01;;;;;;;5.37;4.17;;;;;;;20.66;47.11;99724.73;1730531;82;21683;-72
2022/05/12 01:19:33;;;;;;;10.75;4.92;;;;;;;20.68;47.06;99726.67;1730254;83;21581;-73
2022/05/12 01:21:59;;;;;;;10.13;4.60;;;;;;;20.66;47.03;99724.73;1729115;83;21546;-73
2022/05/12 01:24:33;;;;;;;6.60;4.62;;;;;;;20.61;47.01;99726.05;1730136;82;21085;-73
2022/05/12 01:27:18;;;;;;;5.85;4.37;;;;;;;20.59;46.99;99723.57;1729572;83;21011;-73
2022/05/12 01:29:27;;;;;;;5.85;4.87;;;;;;;20.59;46.98;99726.81;1726475;83;21391;-72
2022/05/12 01:31:53;;;;;;;9.50;4.70;;;;;;;20.60;46.94;99725.75;1730377;83;21022;-72
2022/05/12 01:34:21;;;;;;;5.33;4.47;;;;;;;20.57;46.92;99720.84;1730324;83;20986;-73
2022/05/12 01:36:47;;;;;;;9.18;4.60;;;;;;;20.53;46.91;99719.70;1730449;82;21090;-73
2022/05/12 01:39:13;;;;;;;5.87;4.50;;;;;;;20.52;46.91;99715.34;1730119;83;21034;-72
2022/05/12 01:41:39;;;;;;;12.70;4.83;;;;;;;20.51;46.89;99715.91;1730314;82;21107;-73
2022/05/12 01:44:06;;;;;;;6.97;4.10;;;;;;;20.49;46.89;99712.61;1730870;82;21534;-72
2022/05/12 01:46:32;;;;;;;6.62;4.92;;;;;;;20.47;46.88;99715.30;1730648;83;21015;-72
2022/05/12 01:48:59;;;;;;;7.05;4.15;;;;;;;20.40;46.90;99716.30;1730461;82;20911;-73
2022/05/12 01:51:26;;;;;;;11.05;4.62;;;;;;;20.35;46.93;99721.64;1730484;82;21157;-73
2022/05/12 01:53:52;;;;;;;5.47;4.97;;;;;;;20.34;46.95;99717.28;1730631;82;21852;-73
2022/05/12 01:56:18;;;;;;;15.95;5.05;;;;;;;20.34;46.97;99719.17;1730325;82;21042;-73
2022/05/12 01:58:44;;;;;;;9.38;4.45;;;;;;;20.33;46.99;99718.37;1730956;82;21006;-73
2022/05/12 02:01:11;;;;;;;8.68;4.15;;;;;;;20.33;47.01;99722.44;1730386;82;21431;-72
2022/05/12 02:03:37;;;;;;;6.40;3.92;;;;;;;20.33;47.02;99716.20;1730009;82;21047;-73
2022/05/12 02:06:03;;;;;;;12.88;4.30;;;;;;;20.34;47.01;99717.28;1730168;82;21108;-73
2022/05/12 02:08:29;;;;;;;9.73;4.45;;;;;;;20.29;47.01;99721.82;1730239;82;20970;-72
2022/05/12 02:10:56;;;;;;;7.50;4.50;;;;;;;20.22;47.05;99721.97;1730364;82;21061;-73
2022/05/12 02:13:25;;;;;;;5.17;4.28;;;;;;;20.17;47.11;99724.59;1721710;82;21077;-73
2022/05/12 02:15:50;;;;;;;6.53;4.20;;;;;;;20.12;47.12;99729.95;1721568;82;21070;-72
2022/05/12 02:18:20;;;;;;;8.60;4.10;;;;;;;20.07;47.22;99727.69;1720657;83;21369;-73
2022/05/12 02:20:46;;;;;;;6.22;4.62;;;;;;;20.00;47.26;99727.86;1712253;83;21034;-73
2022/05/12 02:23:12;;;;;;;7.12;4.47;;;;;;;19.91;47.34;99728.00;1712236;83;21019;-73
2022/05/12 02:25:38;;;;;;;9.60;4.72;;;;;;;19.85;47.45;99720.84;1711998;83;21029;-73
2022/05/12 02:28:04;;;;;;;4.58;3.62;;;;;;;19.79;47.55;99717.78;1712202;83;21674;-73
2022/05/12 02:30:31;;;;;;;10.35;4.20;;;;;;;19.78;47.62;99720.19;1712240;83;21128;-72
2022/05/12 02:32:57;;;;;;;8.35;4.72;;;;;;;19.72;47.70;99713.07;1691903;84;21072;-73
2022/05/12 02:35:24;;;;;;;6.03;3.85;;;;;;;19.72;47.84;99711.72;1717808;83;21050;-72
2022/05/12 02:37:50;;;;;;;4.80;4.20;;;;;;;19.74;47.85;99709.57;1721601;83;21089;-72
2022/05/12 02:40:18;;;;;;;13.48;3.90;;;;;;;19.72;47.89;99706.30;1721360;82;21464;-73
2022/05/12 02:42:44;;;;;;;5.72;4.35;;;;;;;19.69;47.95;99717.09;1721408;82;21237;-72
2022/05/12 02:45:10;;;;;;;4.10;3.67;;;;;;;19.70;48.03;99717.92;1721298;83;21062;-72
2022/05/12 02:47:36;;;;;;;5.97;4.33;;;;;;;19.70;48.04;99712.51;1721560;83;21018;-73
2022/05/12 02:50:03;;;;;;;5.50;3.92;;;;;;;19.67;48.06;99708.91;1720915;83;21023;-73
2022/05/12 02:52:30;;;;;;;11.57;4.08;;;;;;;19.64;48.10;99712.11;1721217;83;21503;-72
2022/05/12 02:54:56;;;;;;;10.13;4.28;;;;;;;19.59;48.14;99708.81;1721785;82;21965;-72
2022/05/12 02:57:22;;;;;;;7.12;4.10;;;;;;;19.54;48.18;99706.54;1721225;82;21046;-72
2022/05/12 02:59:48;;;;;;;7.12;4.60;;;;;;;19.48;48.25;99708.35;1721905;82;21039;-72
2022/05/12 03:02:14;;;;;;;6.55;3.85;;;;;;;19.44;48.32;99709.38;1721732;83;21054;-73
2022/05/12 03:04:40;;;;;;;4.50;4.10;;;;;;;19.39;48.35;99711.95;1721638;83;21117;-72
2022/05/12 03:07:06;;;;;;;11.10;4.12;;;;;;;19.34;48.44;99707.81;1721961;83;21201;-72
2022/05/12 03:09:33;;;;;;;7.25;3.87;;;;;;;19.32;48.50;99705.87;1721473;82;21054;-72
2022/05/12 03:11:59;;;;;;;6.15;4.50;;;;;;;19.31;48.57;99709.66;1725054;81;21185;-72
2022/05/12 03:14:25;;;;;;;5.97;4.05;;;;;;;19.28;48.60;99711.47;1734896;82;21058;-72
2022/05/12 03:16:53;;;;;;;6.45;3.95;;;;;;;19.22;48.69;99704.34;1735076;82;21050;-72
2022/05/12 03:19:21;;;;;;;6.50;4.03;;;;;;;19.22;48.78;99715.16;1734691;82;21274;-72
2022/05/12 03:21:47;;;;;;;6.75;4.22;;;;;;;19.25;48.79;99722.78;1734858;82;21030;-72
2022/05/12 03:24:16;;;;;;;5.00;4.10;;;;;;;19.25;48.85;99729.53;1735054;82;21010;-73
2022/05/12 03:26:42;;;;;;;7.22;3.90;;;;;;;19.24;48.90;99721.16;1734542;82;21038;-72
2022/05/12 03:29:08;;;;;;;10.55;4.60;;;;;;;19.23;48.95;99728.97;1735064;82;21109;-72
2022/05/12 03:31:34;;;;;;;6.28;3.77;;;;;;;19.23;49.03;99734.37;1734796;82;21078;-72
2022/05/12 03:34:00;;;;;;;4.70;4.17;;;;;;;19.26;49.07;99731.71;1734506;82;21597;-72
2022/05/12 03:36:26;;;;;;;7.50;4.17;;;;;;;19.27;49.10;99734.19;1734924;82;21001;-72
2022/05/12 03:38:52;;;;;;;5.45;3.92;;;;;;;19.29;49.17;99730.70;1733319;82;21018;-72
2022/05/12 03:41:18;;;;;;;9.30;4.53;;;;;;;19.33;49.21;99727.80;1705550;84;21081;-72
2022/05/12 03:46:32;;;;;;;7.30;3.87;;;;;;;19.41;49.24;99722.03;1734663;82;21019;-72
2022/05/12 03:49:00;;;;;;;4.83;3.90;;;;;;;19.48;49.27;99728.64;1735129;82;21499;-73
2022/05/12 03:51:26;;;;;;;6.40;3.52;;;;;;;19.50;49.28;99732.44;1740464;82;21108;-73
2022/05/12 03:53:52;;;;;;;4.35;3.65;;;;;;;19.53;49.31;99733.33;1740442;82;20974;-73
2022/05/12 03:56:18;;;;;;;7.62;4.25;;;;;;;19.59;49.31;99733.16;1761665;81;21671;-72
2022/05/12 03:58:44;;;;;;;8.23;3.92;;;;;;;19.62;49.30;99735.90;1761408;81;21056;-73
2022/05/12 04:01:10;;;;;;;7.40;4.25;;;;;;;19.73;49.31;99735.01;1758933;81;20907;-73
2022/05/12 04:03:37;;;;;;;6.00;3.67;;;;;;;19.90;49.31;99743.42;1758954;81;21038;-72
2022/05/12 04:06:05;;;;;;;8.28;4.53;;;;;;;20.53;49.27;99741.37;1758629;81;20983;-73
2022/05/12 04:08:31;;;;;;;8.85;3.90;;;;;;;21.05;48.85;99741.20;1758876;81;21503;-72
2022/05/12 04:10:57;;;;;;;5.97;3.33;;;;;;;21.28;48.41;99751.81;1757469;81;20884;-73
2022/05/12 04:13:24;;;;;;;7.47;3.70;;;;;;;21.14;48.13;99743.80;1758689;81;21539;-73
2022/05/12 04:15:50;;;;;;;9.20;4.08;;;;;;;20.88;47.97;99754.02;1758182;81;21543;-73
2022/05/12 04:18:16;;;;;;;5.47;3.60;;;;;;;20.61;47.92;99755.85;1758846;81;21014;-73
2022/05/12 04:20:42;;;;;;;4.45;3.60;;;;;;;20.41;47.93;99758.55;1759001;81;22384;-73
2022/05/12 04:23:08;;;;;;;7.20;3.58;;;;;;;20.27;47.90;99767.24;1758550;81;21037;-73
2022/05/12 04:25:34;;;;;;;6.03;3.55;;;;;;;20.12;47.88;99771.92;1758766;81;20996;-73
2022/05/12 04:28:02;;;;;;;11.35;4.03;;;;;;;20.02;47.93;99781.20;1758707;81;21007;-72
2022/05/12 04:30:28;;;;;;;5.85;3.02;;;;;;;20.24;48.26;99773.98;1758371;81;21097;-73
2022/05/12 04:32:54;;;;;;;8.18;3.58;;;;;;;21.69;48.09;99771.19;1758268;81;21104;-73
2022/05/12 04:35:20;;;;;;;7.12;3.22;;;;;;;22.84;47.10;99773.94;1758656;81;21015;-73
2022/05/12 04:37:53;;;;;;;4.50;3.12;;;;;;;23.06;45.88;99785.17;1758861;81;20987;-73
2022/05/12 04:40:26;;;;;;;8.00;3.33;;;;;;;22.50;45.56;99797.65;1758292;81;20987;-73
2022/05/12 04:42:53;;;;;;;7.62;3.58;;;;;;;23.00;45.28;99787.08;1758786;81;20991;-73
2022/05/12 04:45:21;;;;;;;5.42;3.90;;;;;;;23.42;44.65;99789.69;1758487;81;21042;-74
2022/05/12 04:47:47;;;;;;;11.28;3.58;;;;;;;23.37;44.28;99795.07;1758237;81;21098;-73
2022/05/12 04:50:17;;;;;;;14.30;4.12;;;;;;;23.10;44.12;99798.53;1758772;81;21014;-73
2022/05/12 04:52:43;;;;;;;8.60;3.42;;;;;;;23.00;44.10;99814.27;1758309;80;21015;-73
2022/05/12 04:55:10;;;;;;;10.05;3.62;;;;;;;23.00;43.90;99811.55;1758655;81;21025;-73
2022/05/12 04:57:44;;;;;;;10.08;4.35;;;;;;;23.00;43.66;99812.91;1758520;81;21612;-74
2022/05/12 05:00:16;;;;;;;11.38;3.85;;;;;;;23.04;43.42;99833.60;1758609;81;21027;-74
2022/05/12 05:02:42;;;;;;;12.28;3.47;;;;;;;23.12;43.30;99843.42;1758241;81;20998;-74
2022/05/12 05:05:09;;;;;;;27.98;4.67;;;;;;;23.31;43.19;99853.30;1758443;81;20971;-74
2022/05/12 05:07:35;;;;;;;29.42;4.95;;;;;;;23.30;42.77;99863.36;1758752;81;21089;-74
2022/05/12 05:10:02;;;;;;;15.48;4.37;;;;;;;23.31;42.58;99873.71;1753667;81;21695;-73
2022/05/12 05:12:29;;;;;;;27.65;5.33;;;;;;;23.28;42.38;99895.48;1758730;81;21053;-74
2022/05/12 05:14:55;;;;;;;42.60;6.50;;;;;;;23.08;42.19;99925.28;1749061;81;20916;-73
2022/05/12 05:17:23;;;;;;;17.15;4.37;;;;;;;22.84;42.52;99948.52;1749451;82;21547;-74
2022/05/12 05:19:50;;;;;;;19.15;4.62;;;;;;;22.47;43.00;99961.23;1748934;81;21007;-74
2022/05/12 05:22:17;;;;;;;12.33;4.08;;;;;;;22.20;43.48;99978.92;1748942;81;21301;-73
2022/05/12 05:24:43;;;;;;;11.63;3.85;;;;;;;22.08;43.89;99994.53;1749219;81;20994;-73
2022/05/12 05:27:09;;;;;;;15.83;4.17;;;;;;;22.12;44.30;99989.70;1749607;81;21043;-74
2022/05/12 05:29:42;;;;;;;13.10;3.47;;;;;;;21.76;44.63;99969.97;1749581;82;21035;-73
2022/05/12 05:32:11;;;;;;;11.10;4.05;;;;;;;21.14;45.15;99947.73;1740901;82;21480;-74
2022/05/12 05:34:37;;;;;;;8.65;3.22;;;;;;;20.64;45.75;99987.86;1725001;82;21828;-73
2022/05/12 05:37:04;;;;;;;9.15;3.75;;;;;;;20.32;46.54;100001.11;1729354;82;21019;-73
2022/05/12 05:39:30;;;;;;;7.90;3.00;;;;;;;20.29;47.13;100009.73;1742529;81;21408;-73
2022/05/12 05:42:03;;;;;;;7.75;3.70;;;;;;;20.10;47.45;100018.23;1746549;82;21015;-73
2022/05/12 05:44:32;;;;;;;16.95;3.30;;;;;;;20.11;47.84;100028.02;1732620;81;21011;-73
2022/05/12 05:46:58;;;;;;;5.62;3.12;;;;;;;20.50;48.03;100034.47;1719401;82;21571;-73
2022/05/12 05:49:25;;;;;;;12.75;3.35;;;;;;;20.34;48.20;100040.95;1706483;83;38856;-73
2022/05/12 05:54:35;;;;;;;10.10;3.75;;;;;;;20.14;48.77;100043.24;1719550;83;21007;-73
2022/05/12 05:57:01;;;;;;;7.95;2.77;;;;;;;20.13;48.96;100056.48;1719721;83;21464;-73
2022/05/12 05:59:27;;;;;;;8.85;2.85;;;;;;;19.86;49.19;100058.09;1742219;82;21194;-73
2022/05/12 06:01:53;;;;;;;12.13;2.67;;;;;;;19.59;49.48;100063.20;1749263;81;20991;-73
2022/05/12 06:04:20;;;;;;;8.30;2.27;;;;;;;19.48;49.78;100063.20;1748792;82;22260;-73
2022/05/12 06:06:46;;;;;;;6.58;2.50;;;;;;;19.38;50.02;100071.36;1747494;81;21442;-73
2022/05/12 06:09:13;;;;;;;9.53;2.30;;;;;;;19.36;50.21;100068.05;1748873;82;21009;-73
2022/05/12 06:11:44;;;;;;;13.28;2.55;;;;;;;19.38;50.42;100063.77;1748678;81;21315;-73
2022/05/12 06:14:11;;;;;;;6.37;2.42;;;;;;;19.50;50.55;100077.30;1747838;80;21508;-73
2022/05/12 06:16:37;;;;;;;12.63;4.75;;;;;;;19.64;50.64;100067.88;1754536;80;21003;-73
2022/05/12 06:19:03;;;;;;;11.75;2.60;;;;;;;19.90;50.71;100063.33;1741641;80;20991;-73
2022/05/12 06:21:30;;;;;;;6.10;2.60;;;;;;;19.91;50.54;100093.41;1752302;80;21044;-73
2022/05/12 06:23:56;;;;;;;41.98;4.42;;;;;;;19.72;50.51;100087.30;1747200;80;21191;-73
2022/05/12 06:26:23;;;;;;;6.35;2.27;;;;;;;19.49;50.47;100104.08;1748849;80;21046;-73
2022/05/12 06:28:49;;;;;;;11.60;2.60;;;;;;;19.25;50.50;100113.48;1751683;81;21054;-73
2022/05/12 06:31:24;;;;;;;10.82;1.85;;;;;;;19.10;50.57;100107.72;1739586;81;21022;-73
2022/05/12 06:33:46;;;;;;;11.90;1.90;;;;;;;19.03;50.64;100118.33;1760190;80;21018;-73
2022/05/12 06:36:12;;;;;;;6.87;1.70;;;;;;;18.91;50.77;100122.34;1750377;81;21012;-73
2022/05/12 06:38:38;;;;;;;7.17;1.52;;;;;;;18.92;50.80;100130.76;1786896;80;20994;-73
2022/05/12 06:41:06;;;;;;;18.15;2.02;;;;;;;18.91;50.78;100130.45;1762895;80;20990;-72
2022/05/12 06:43:32;;;;;;;13.45;1.60;;;;;;;18.82;50.84;100134.55;1749024;81;21082;-72
2022/05/12 06:45:59;;;;;;;22.42;2.50;;;;;;;18.75;50.87;100146.78;1752991;80;21045;-72
2022/05/12 06:48:25;;;;;;;29.52;2.85;;;;;;;18.74;50.82;100147.02;1737211;80;21647;-73
2022/05/12 06:50:51;;;;;;;25.40;2.00;;;;;;;18.65;50.76;100148.38;1744289;80;20926;-73
2022/05/12 06:53:17;;;;;;;11.53;1.52;;;;;;;18.57;50.73;100144.66;1745284;80;20995;-73
2022/05/12 06:55:44;;;;;;;4.05;1.30;;;;;;;18.79;50.80;100147.97;1748380;80;21056;-72
2022/05/12 06:58:10;;;;;;;21.42;1.90;;;;;;;19.14;50.74;100154.83;1724761;81;21545;-73
2022/05/12 07:00:36;;;;;;;19.23;1.80;;;;;;;19.61;50.59;100163.05;1725917;80;21162;-73
2022/05/12 07:03:04;;;;;;;25.65;2.25;;;;;;;19.96;50.26;100172.00;1728306;82;21048;-73
2022/05/12 07:05:30;;;;;;;87.88;6.20;;;;;;;20.09;49.88;100183.13;1724618;81;21090;-73
2022/05/12 07:07:56;;;;;;;37.90;3.30;;;;;;;20.24;49.42;100174.78;1726221;82;21093;-73
2022/05/12 07:10:24;;;;;;;10.80;1.40;;;;;;;20.53;49.00;100174.88;1728637;81;21049;-72
2022/05/12 07:12:51;;;;;;;11.45;1.42;;;;;;;20.58;48.68;100187.18;1726837;82;21225;-72
2022/05/12 07:15:18;;;;;;;15.23;1.65;;;;;;;20.57;48.48;100185.00;1728323;81;21014;-72
2022/05/12 07:17:44;;;;;;;15.38;1.70;;;;;;;20.34;48.24;100183.16;1725546;82;21092;-73
2022/05/12 07:28:29;;;;;;;17.32;1.50;;;;;;;20.70;47.87;100198.27;1722355;81;20998;-72
2022/05/12 07:31:00;;;;;;;28.25;2.52;;;;;;;20.92;47.74;100206.55;1695122;82;21663;-73
2022/05/12 07:33:31;;;;;;;27.55;3.17;;;;;;;20.90;47.29;100216.80;1719359;82;21057;-73
2022/05/12 07:35:58;;;;;;;27.95;2.37;;;;;;;20.94;46.90;100212.55;1723814;82;21305;-73
2022/05/12 07:38:24;;;;;;;14.65;1.80;;;;;;;21.12;46.47;100209.67;1746617;81;21121;-74
2022/05/12 07:40:51;;;;;;;37.70;3.22;;;;;;;21.35;46.24;100227.20;1712451;82;20921;-73
2022/05/12 07:43:18;;;;;;;52.08;3.70;;;;;;;21.47;45.58;100230.36;1719887;82;21029;-73
2022/05/12 07:45:44;;;;;;;33.73;2.92;;;;;;;21.20;45.07;100228.80;1724817;81;20978;-73
2022/05/12 07:48:11;;;;;;;19.45;2.20;;;;;;;21.05;44.74;100239.33;1723443;81;20926;-73
2022/05/12 07:50:39;;;;;;;15.32;2.65;;;;;;;21.14;44.81;100231.97;1723889;81;21819;-73
2022/05/12 07:53:08;;;;;;;31.85;4.10;;;;;;;21.53;44.66;100237.54;1719347;81;21046;-73
2022/05/12 07:55:35;;;;;;;93.05;7.47;;;;;;;21.73;44.45;100260.42;1719695;81;21038;-73
2022/05/12 07:58:02;;;;;;;48.30;3.92;;;;;;;21.57;43.89;100252.27;1719416;82;21119;-73
2022/05/12 08:00:30;;;;;;;37.03;3.10;;;;;;;21.26;43.84;100261.20;1722020;82;21007;-73
2022/05/12 08:02:57;;;;;;;62.85;4.50;;;;;;;21.37;43.95;100261.69;1722034;81;21953;-73
2022/05/12 08:05:23;;;;;;;53.48;4.05;;;;;;;21.53;43.66;100263.32;1744842;81;20987;-73
2022/05/12 08:07:50;;;;;;;20.92;3.15;;;;;;;21.45;43.31;100263.71;1745247;81;21053;-73
2022/05/12 08:10:16;;;;;;;28.00;2.60;;;;;;;21.60;43.38;100278.92;1748016;80;21054;-74
2022/05/12 08:12:42;;;;;;;13.75;2.12;;;;;;;21.70;42.83;100274.48;1746657;81;20996;-73
2022/05/12 08:15:09;;;;;;;21.48;2.40;;;;;;;21.73;42.62;100283.49;1746484;81;21110;-73
2022/05/12 08:17:37;;;;;;;33.23;3.20;;;;;;;21.85;42.54;100291.54;1741978;81;21018;-73
2022/05/12 08:20:06;;;;;;;129.12;9.60;;;;;;;21.85;42.15;100282.04;1747567;81;21481;-73
2022/05/12 08:22:33;;;;;;;;;;;;;;;21.96;41.68;100292.56;1747319;81;21015;-73
2022/05/12 08:24:59;;;;;;;57.55;4.50;;;;;;;21.40;39.99;100291.03;1748783;81;20216;-74
2022/05/12 08:27:25;;;;;;;19.90;3.08;;;;;;;21.35;39.45;100300.98;1716011;81;21062;-73
2022/05/12 08:29:52;;;;;;;38.67;3.87;;;;;;;21.54;39.08;100310.55;1743001;80;21534;-74
2022/05/12 08:32:19;;;;;;;22.48;1.70;;;;;;;21.85;38.88;100311.91;1752240;80;20994;-73
2022/05/12 08:34:45;;;;;;;20.60;1.87;;;;;;;22.20;38.83;100328.82;1720754;81;21029;-74
2022/05/12 08:37:11;;;;;;;13.88;1.50;;;;;;;22.46;38.75;100316.98;1724031;82;21010;-73
2022/05/12 08:39:37;;;;;;;28.52;2.60;;;;;;;22.65;38.85;100334.14;1721761;81;21062;-73
2022/05/12 08:42:14;;;;;;;10.20;1.90;;;;;;;22.14;38.93;100348.01;1720759;82;21070;-73
2022/05/12 08:44:40;;;;;;;11.12;1.72;;;;;;;21.68;39.62;100345.83;1720312;81;21106;-73
2022/05/12 08:47:14;;;;;;;10.70;1.55;;;;;;;21.70;40.18;100349.67;1725866;81;21700;-73
2022/05/12 08:49:47;;;;;;;23.47;2.17;;;;;;;21.72;40.41;100355.67;1754261;80;20999;-73
2022/05/12 08:52:27;;;;;;;13.65;2.27;;;;;;;21.73;40.53;100355.97;1697870;81;21896;-73
2022/05/12 08:55:15;;;;;;;42.78;2.58;;;;;;;21.76;40.11;100358.19;1732984;82;21045;-73
2022/05/12 08:58:07;;;;;;;67.27;5.72;;;;;;;21.64;39.11;100361.52;1726789;81;21095;-73
2022/05/12 09:00:54;;;;;;;77.12;6.33;;;;;;;21.75;38.30;100366.86;1740129;80;21044;-73
2022/05/12 09:03:49;;;;;;;50.43;4.87;;;;;;;21.71;36.91;100371.69;1719256;82;21036;-73
2022/05/12 09:06:19;;;;;;;16.75;2.55;;;;;;;21.53;36.24;100378.66;1724115;81;21282;-72
2022/05/12 09:08:54;;;;;;;10.08;1.92;;;;;;;21.68;36.32;100387.08;1718878;82;21002;-73
2022/05/12 09:11:31;;;;;;;9.83;1.45;;;;;;;21.84;36.31;100378.99;1723044;81;21089;-72
2022/05/12 09:13:59;;;;;;;5.60;1.27;;;;;;;21.90;36.13;100384.00;1723800;82;21099;-73
2022/05/12 09:16:30;;;;;;;26.57;2.87;;;;;;;22.10;36.31;100384.35;1723693;82;21052;-72
2022/05/12 09:18:57;;;;;;;24.85;2.87;;;;;;;21.85;35.96;100402.34;1723391;82;21240;-72
2022/05/12 09:21:29;;;;;;;16.42;1.80;;;;;;;21.88;35.88;100404.56;1723022;81;21023;-72
2022/05/12 09:23:57;;;;;;;10.60;1.65;;;;;;;21.72;35.90;100404.53;1725540;82;21113;-72
2022/05/12 09:26:39;;;;;;;6.85;1.82;;;;;;;21.83;36.29;100413.16;1730425;82;20994;-72
2022/05/12 09:29:22;;;;;;;24.45;2.33;;;;;;;21.60;36.68;100422.77;1724530;82;21627;-72
2022/05/12 09:32:09;;;;;;;11.83;1.70;;;;;;;21.41;37.46;100422.94;1713761;82;21502;-72
2022/05/12 09:34:38;;;;;;;26.77;1.70;;;;;;;21.43;38.08;100446.31;1721117;82;21076;-73
2022/05/12 09:37:28;;;;;;;6.60;1.30;;;;;;;21.36;38.31;100449.12;1729344;81;21041;-72
2022/05/12 09:39:58;;;;;;;14.18;1.52;;;;;;;21.28;38.48;100447.63;1721051;82;21096;-72
2022/05/12 09:42:32;;;;;;;26.27;2.83;;;;;;;21.47;38.50;100437.95;1717266;82;21018;-73
2022/05/12 09:45:02;;;;;;;20.45;2.27;;;;;;;21.50;38.36;100449.71;1721082;81;22122;-73
2022/05/12 09:47:29;;;;;;;17.20;1.57;;;;;;;21.41;38.06;100454.67;1723554;82;21879;-73
2022/05/12 09:50:25;;;;;;;34.75;2.42;;;;;;;21.35;37.89;100462.42;1721226;82;20976;-73
2022/05/12 09:52:57;;;;;;;8.65;1.15;;;;;;;21.45;37.65;100469.95;1721560;82;21109;-72
2022/05/12 09:55:42;;;;;;;10.58;1.20;;;;;;;21.64;37.40;100468.73;1751505;80;21038;-73
2022/05/12 09:58:19;;;;;;;9.53;1.10;;;;;;;21.35;37.25;100462.42;1752089;80;21640;-73
2022/05/12 10:00:49;;;;;;;10.03;1.20;;;;;;;20.86;37.22;100473.22;1717075;81;21257;-73
2022/05/12 10:09:04;;;;;;;;;;;;;;;20.91;36.94;100480.09;1734465;82;21100;-73
2022/05/12 10:11:35;;;;;;;8.60;1.27;;;;;;;21.11;36.55;100484.66;1734115;82;21017;-73
2022/05/12 10:14:01;;;;;;;5.53;1.05;;;;;;;21.43;36.30;100481.58;1700180;80;21052;-73
2022/05/12 10:16:30;;;;;;;29.85;2.27;;;;;;;21.82;36.19;100490.25;1713542;82;21062;-73
2022/05/12 10:18:59;;;;;;;5.17;0.80;;;;;;;22.00;35.80;100480.59;1698731;83;21025;-73
2022/05/12 10:21:42;;;;;;;4.00;1.07;;;;;;;21.83;35.36;100494.63;1706971;83;21495;-73
2022/05/12 10:24:39;;;;;;;4.17;0.80;;;;;;;21.87;35.35;100491.72;1692336;83;21541;-73
2022/05/12 10:27:16;;;;;;;6.60;0.90;;;;;;;21.96;35.12;100488.94;1694599;83;21461;-73
2022/05/12 10:30:10;;;;;;;3.35;0.65;;;;;;;22.07;34.94;100489.42;1701194;83;21051;-73
2022/05/12 10:32:56;;;;;;;1.77;0.90;;;;;;;22.11;34.92;100498.74;1706793;83;21098;-73
2022/05/12 10:35:33;;;;;;;3.45;0.80;;;;;;;22.20;34.95;100508.14;1716193;83;21078;-72
2022/05/12 10:38:28;;;;;;;3.60;0.70;;;;;;;22.07;34.74;100507.08;1708570;83;21174;-73
2022/05/12 10:41:01;;;;;;;6.42;1.35;;;;;;;21.79;34.69;100502.95;1711853;83;21045;-73
2022/05/12 10:43:57;;;;;;;2.02;0.93;;;;;;;21.63;34.67;100509.15;1711858;83;20994;-73
2022/05/12 10:46:40;;;;;;;3.05;0.55;;;;;;;21.74;34.73;100503.67;1711716;82;21498;-73
2022/05/12 10:49:30;;;;;;;7.78;1.47;;;;;;;21.68;34.71;100520.92;1709202;83;21064;-73
2022/05/12 10:52:08;;;;;;;3.85;0.90;;;;;;;21.45;34.67;100525.58;1709819;83;21095;-73
2022/05/12 10:55:08;;;;;;;1.92;0.80;;;;;;;21.25;34.93;100522.69;1728901;83;21045;-73
2022/05/12 10:58:22;;;;;;;3.10;0.98;;;;;;;21.50;35.07;100522.42;1722675;82;21502;-73
2022/05/12 11:01:12;;;;;;;4.85;1.30;;;;;;;21.09;35.06;100532.04;1705716;83;21063;-73
2022/05/12 11:03:44;;;;;;;10.08;1.05;;;;;;;20.83;35.53;100544.14;1707353;83;21063;-72
2022/05/12 11:06:16;;;;;;;6.70;0.78;;;;;;;20.71;35.80;100541.96;1713840;83;21786;-72
2022/05/12 11:08:55;;;;;;;4.87;0.88;;;;;;;20.80;35.94;100539.20;1712671;83;21010;-72
2022/05/12 11:11:33;;;;;;;1.92;0.60;;;;;;;20.86;35.86;100546.41;1711634;83;21026;-72
2022/05/12 11:14:16;;;;;;;9.88;0.90;;;;;;;21.20;35.80;100538.03;1715582;83;21027;-73
2022/05/12 11:17:10;;;;;;;8.25;1.57;;;;;;;21.51;35.54;100539.54;1715430;82;21543;-73
2022/05/12 11:19:38;;;;;;;6.60;1.00;;;;;;;21.59;35.34;100530.52;1713339;83;21215;-73
2022/05/12 11:22:36;;;;;;;4.30;1.10;;;;;;;21.35;35.13;100539.22;1719888;82;21034;-73
2022/05/12 11:25:17;;;;;;;7.53;2.10;;;;;;;21.26;35.23;100543.86;1710365;83;21057;-73
2022/05/12 11:31:02;;;;;;;10.32;1.27;;;;;;;20.85;35.47;100552.36;1695270;82;21069;-72
2022/05/12 11:33:34;;;;;;;1.35;0.80;;;;;;;21.22;35.51;100545.39;1682582;83;21171;-73
2022/05/12 11:36:01;;;;;;;3.72;0.60;;;;;;;21.41;35.09;100553.19;1719905;82;21052;-73
2022/05/12 11:38:44;;;;;;;5.87;0.50;;;;;;;21.88;35.09;100553.92;1695905;82;21022;-73
2022/05/12 11:41:34;;;;;;;5.50;0.95;;;;;;;22.04;34.84;100561.89;1702760;83;21436;-72
2022/05/12 11:44:43;;;;;;;5.40;0.90;;;;;;;22.04;34.84;100552.39;1721541;83;21010;-72
2022/05/12 11:47:16;;;;;;;3.75;0.78;;;;;;;21.79;34.98;100554.55;1708299;83;22047;-72
2022/05/12 11:50:13;;;;;;;6.05;0.70;;;;;;;21.79;35.16;100563.52;1704107;83;21022;-73
2022/05/12 11:53:19;;;;;;;5.08;0.90;;;;;;;21.96;35.24;100556.83;1708038;83;21042;-73
2022/05/12 11:56:12;;;;;;;4.20;0.70;;;;;;;21.78;35.20;100566.46;1711025;82;21058;-73
2022/05/12 11:58:41;;;;;;;4.55;0.60;;;;;;;21.48;35.16;100565.28;1647146;87;21132;-73
2022/05/12 12:01:26;;;;;;;5.20;0.93;;;;;;;21.26;35.16;100577.78;1656559;86;21116;-73
2022/05/12 12:03:57;;;;;;;5.53;1.12;;;;;;;21.01;35.28;100582.02;1684617;84;21065;-73